Terminal Aerodrome Forecast
Issued by NWS Charleston, SC

Home | Current Version | Previous Version | Text Only | Print | Product List | Glossary On
Versions: 1 2 3 4 5 6 7 8 9 10 11 12 13 14 15 16
000
FTUS42 KCHS 251729
TAFSAV
TAF
KSAV 251729Z 2518/2618 17008KT P6SM SCT020
     FM252000 20012G18KT P6SM SCT040 SCT100
      TEMPO 2522/2601 4SM -TSRA BR SCT020 BKN040CB
     FM260200 22010KT P6SM SCT035 BKN120 WS020/25035KT
     FM260800 23009KT P6SM SCT008 BKN020 WS020/26035KT
     FM261300 27012G18KT P6SM SCT025 SCT060=

USA.gov is the U.S. government's official web portal to all federal, state and local government web resources and services.